Time;durP1;ratioP1;P1;durP2;ratioP2;P2;SDS_P1;SDS_P2;PMS_P1;PMS_P2;Temp;Humidity;BMP_temperature;BMP_pressure;BME280_temperature;BME280_humidity;BME280_pressure;Samples;Min_cycle;Max_cycle;Signal;HPM_P1;HPM_P2
2021/03/10 00:00:11;;;;;;;26.67;20.20;;;5.90;99.90;;;;;;5104764;28;20433;-73
2021/03/10 00:02:37;;;;;;;26.00;19.93;;;6.00;99.90;;;;;;5084045;28;20667;-73
2021/03/10 00:05:04;;;;;;;26.00;20.10;;;5.90;99.90;;;;;;5086185;28;20471;-73
2021/03/10 00:07:30;;;;;;;24.53;19.67;;;5.80;99.90;;;;;;5108117;27;20438;-73
2021/03/10 00:09:56;;;;;;;26.13;19.23;;;5.90;99.90;;;;;;5089809;28;20980;-73
2021/03/10 00:12:21;;;;;;;24.97;19.03;;;6.10;99.90;;;;;;5100683;28;20187;-73
2021/03/10 00:14:47;;;;;;;25.33;19.53;;;5.90;99.90;;;;;;5119471;27;20180;-73
2021/03/10 00:17:13;;;;;;;24.93;19.57;;;6.40;99.90;;;;;;5100648;28;20179;-73
2021/03/10 00:19:40;;;;;;;29.87;19.07;;;6.30;99.90;;;;;;5093476;28;20229;-73
2021/03/10 00:22:05;;;;;;;24.97;19.57;;;6.10;99.90;;;;;;5087877;28;20648;-73
2021/03/10 00:24:31;;;;;;;24.60;18.70;;;6.00;99.90;;;;;;5091562;28;20512;-73
2021/03/10 00:26:57;;;;;;;25.27;20.47;;;6.30;99.90;;;;;;5133844;27;20421;-73
2021/03/10 00:29:22;;;;;;;24.00;19.07;;;6.20;99.90;;;;;;5140325;27;20260;-73
2021/03/10 00:31:48;;;;;;;26.90;19.93;;;6.20;99.90;;;;;;5132880;27;20188;-73
2021/03/10 00:34:14;;;;;;;25.67;18.67;;;6.20;99.90;;;;;;5107756;28;20179;-73
2021/03/10 00:36:39;;;;;;;23.93;19.93;;;6.00;99.90;;;;;;5110674;27;20227;-73
2021/03/10 00:39:05;;;;;;;24.23;18.97;;;5.80;99.90;;;;;;5069550;28;20627;-73
2021/03/10 00:41:33;;;;;;;20.83;18.50;;;5.80;99.90;;;;;;5101310;28;20193;-73
2021/03/10 00:43:59;;;;;;;24.73;19.53;;;5.80;99.90;;;;;;5106711;28;20420;-73
2021/03/10 00:46:25;;;;;;;25.20;20.17;;;5.90;99.90;;;;;;5090839;28;20739;-73
2021/03/10 00:48:50;;;;;;;22.63;18.40;;;6.00;99.90;;;;;;5133679;27;20731;-73
2021/03/10 00:51:16;;;;;;;21.80;17.80;;;5.80;99.90;;;;;;5093522;28;20196;-73
2021/03/10 00:53:42;;;;;;;24.00;19.63;;;5.90;99.90;;;;;;5118504;27;20425;-73
2021/03/10 00:56:10;;;;;;;23.13;18.83;;;5.60;99.90;;;;;;5094050;28;20204;-73
2021/03/10 00:58:36;;;;;;;21.17;17.07;;;5.60;99.90;;;;;;5107121;28;20416;-73
2021/03/10 01:01:01;;;;;;;23.20;18.20;;;5.80;99.90;;;;;;5127854;27;20418;-73
2021/03/10 01:03:27;;;;;;;25.93;20.43;;;5.80;99.90;;;;;;5100359;28;20229;-73
2021/03/10 01:05:53;;;;;;;23.13;18.30;;;5.90;99.90;;;;;;5099368;28;20536;-73
2021/03/10 01:08:18;;;;;;;24.50;18.67;;;6.10;99.90;;;;;;5082193;28;20263;-73
2021/03/10 01:10:46;;;;;;;25.50;19.50;;;6.00;99.90;;;;;;5088870;28;20202;-73
2021/03/10 01:13:11;;;;;;;25.40;18.63;;;5.70;99.90;;;;;;5101881;28;20238;-73
2021/03/10 01:15:39;;;;;;;24.43;19.73;;;5.80;99.90;;;;;;5091730;28;20684;-73
2021/03/10 01:18:05;;;;;;;25.10;18.43;;;5.80;99.90;;;;;;5105022;28;20425;-73
2021/03/10 01:20:31;;;;;;;23.13;17.83;;;5.90;99.90;;;;;;5093434;28;20831;-73
2021/03/10 01:22:57;;;;;;;23.07;19.10;;;5.90;99.90;;;;;;5078704;28;20283;-73
2021/03/10 01:25:24;;;;;;;28.80;21.00;;;5.90;99.90;;;;;;5113786;27;20233;-73
2021/03/10 01:27:49;;;;;;;26.83;19.70;;;5.80;99.90;;;;;;5094292;28;20332;-73
2021/03/10 01:30:16;;;;;;;28.20;20.73;;;5.90;99.90;;;;;;5121982;27;20529;-73
2021/03/10 01:32:43;;;;;;;31.03;22.00;;;5.70;99.90;;;;;;5106963;28;20175;-73
2021/03/10 01:35:09;;;;;;;36.83;24.33;;;5.80;99.90;;;;;;5092750;28;20441;-73
2021/03/10 01:37:35;;;;;;;36.73;23.90;;;5.60;99.90;;;;;;5110536;27;21100;-73
2021/03/10 01:40:10;;;;;;;35.30;24.80;;;5.60;99.90;;;;;;5084533;28;20418;-73
2021/03/10 01:42:36;;;;;;;37.17;24.20;;;5.60;99.90;;;;;;5113236;28;20413;-73
2021/03/10 01:45:05;;;;;;;44.83;27.30;;;5.60;99.90;;;;;;5104662;28;20421;-73
2021/03/10 01:47:33;;;;;;;47.10;27.33;;;5.60;99.90;;;;;;5094705;28;20436;-73
2021/03/10 01:49:58;;;;;;;56.20;30.07;;;5.50;99.90;;;;;;5104437;28;20868;-73
2021/03/10 01:52:26;;;;;;;51.43;27.10;;;5.50;99.90;;;;;;5100537;28;20418;-73
2021/03/10 01:54:52;;;;;;;43.17;28.13;;;5.50;99.90;;;;;;5114714;27;20434;-73
2021/03/10 01:57:18;;;;;;;52.47;29.33;;;5.60;99.90;;;;;;5125450;27;20786;-73
2021/03/10 01:59:45;;;;;;;48.53;29.00;;;5.70;99.90;;;;;;5101313;28;20711;-73
2021/03/10 02:02:10;;;;;;;54.60;31.33;;;5.80;99.90;;;;;;5093085;28;20216;-73
2021/03/10 02:04:38;;;;;;;57.30;29.90;;;5.70;99.90;;;;;;5100632;28;20517;-73
2021/03/10 02:07:10;;;;;;;62.27;36.07;;;5.70;99.90;;;;;;5096385;28;20196;-73
2021/03/10 02:10:16;;;;;;;53.10;30.40;;;5.30;99.90;;;;;;5078735;28;20926;-73
2021/03/10 02:13:00;;;;;;;63.80;34.80;;;5.40;99.90;;;;;;5088936;28;20417;-73
2021/03/10 02:15:42;;;;;;;53.17;30.13;;;5.40;99.90;;;;;;5139540;27;20956;-73
2021/03/10 02:18:17;;;;;;;75.70;35.27;;;5.60;99.90;;;;;;5093766;28;20497;-73
2021/03/10 02:20:56;;;;;;;62.53;33.93;;;5.50;99.90;;;;;;5087748;28;20951;-73
2021/03/10 02:23:40;;;;;;;58.67;31.00;;;5.80;99.90;;;;;;5093053;28;20441;-73
2021/03/10 02:26:33;;;;;;;59.13;32.67;;;5.90;99.90;;;;;;5095979;28;20442;-73
2021/03/10 02:29:11;;;;;;;61.17;33.53;;;5.80;99.90;;;;;;5096050;28;20467;-73
2021/03/10 02:31:41;;;;;;;60.33;31.37;;;5.80;99.90;;;;;;5103429;28;20430;-73
2021/03/10 02:34:08;;;;;;;54.50;30.63;;;5.90;99.90;;;;;;5108087;28;20409;-73
2021/03/10 02:36:35;;;;;;;54.77;31.47;;;5.90;99.90;;;;;;5125957;27;20432;-73
2021/03/10 02:39:03;;;;;;;51.60;31.67;;;5.80;99.90;;;;;;5088632;28;20961;-73
2021/03/10 02:41:31;;;;;;;49.77;29.63;;;5.90;99.90;;;;;;5083754;28;20465;-73
2021/03/10 02:43:58;;;;;;;45.83;27.60;;;5.60;99.90;;;;;;5095379;28;20453;-73
2021/03/10 02:46:26;;;;;;;44.27;27.47;;;5.80;99.90;;;;;;5097349;28;20509;-73
2021/03/10 02:48:53;;;;;;;42.20;24.97;;;5.70;99.90;;;;;;5107602;28;20536;-73
2021/03/10 02:51:21;;;;;;;44.03;28.13;;;5.50;99.90;;;;;;5096839;28;20418;-73
2021/03/10 02:53:48;;;;;;;45.17;27.00;;;5.60;99.90;;;;;;5082489;28;20945;-73
2021/03/10 02:56:14;;;;;;;42.07;26.63;;;5.60;99.90;;;;;;5083770;28;20887;-73
2021/03/10 02:58:43;;;;;;;37.30;24.07;;;5.50;99.90;;;;;;5092978;28;20527;-73
2021/03/10 03:01:10;;;;;;;39.00;26.50;;;5.50;99.90;;;;;;5107703;28;20551;-73
2021/03/10 03:03:37;;;;;;;36.00;25.23;;;5.60;99.90;;;;;;5096789;28;20940;-73
2021/03/10 03:06:03;;;;;;;37.43;26.03;;;5.60;99.90;;;;;;5108494;28;20508;-73
2021/03/10 03:08:29;;;;;;;36.80;24.20;;;5.70;99.90;;;;;;5096251;28;20950;-73
2021/03/10 03:10:56;;;;;;;36.37;25.30;;;5.70;99.90;;;;;;5084919;28;20421;-73
2021/03/10 03:13:23;;;;;;;35.67;24.90;;;5.50;99.90;;;;;;5102142;28;20506;-73
2021/03/10 03:15:54;;;;;;;38.30;24.13;;;5.70;99.90;;;;;;5095297;28;20446;-73
2021/03/10 03:18:21;;;;;;;40.13;24.03;;;5.80;99.90;;;;;;5104531;28;20419;-73
2021/03/10 03:20:51;;;;;;;37.37;25.37;;;5.90;99.90;;;;;;5103814;28;20910;-73
2021/03/10 03:23:19;;;;;;;32.20;22.63;;;5.60;99.90;;;;;;5105255;28;20410;-73
2021/03/10 03:25:46;;;;;;;28.17;21.43;;;5.90;99.90;;;;;;5086706;28;20425;-73
2021/03/10 03:28:15;;;;;;;31.50;21.93;;;5.90;99.90;;;;;;5089198;28;20414;-73
2021/03/10 03:30:43;;;;;;;30.13;23.50;;;5.80;99.90;;;;;;5103506;28;20511;-73
2021/03/10 03:33:11;;;;;;;30.77;22.67;;;6.00;99.90;;;;;;5103980;28;20606;-73
2021/03/10 03:35:38;;;;;;;27.23;21.30;;;6.00;99.90;;;;;;5107666;28;20510;-73
2021/03/10 03:38:05;;;;;;;30.17;22.33;;;6.10;99.90;;;;;;5108666;28;20418;-73
2021/03/10 03:40:31;;;;;;;28.67;22.80;;;5.90;99.90;;;;;;5079117;28;20425;-73
2021/03/10 03:42:58;;;;;;;30.10;21.60;;;5.80;99.90;;;;;;5094698;28;20945;-73
2021/03/10 03:45:24;;;;;;;34.33;24.10;;;5.90;99.90;;;;;;5100027;28;20411;-73
2021/03/10 03:47:52;;;;;;;31.03;21.83;;;5.70;99.90;;;;;;5087424;28;20505;-73
2021/03/10 03:50:18;;;;;;;32.07;22.17;;;5.80;99.90;;;;;;5091924;28;20532;-73
2021/03/10 03:52:44;;;;;;;33.70;22.70;;;5.80;99.90;;;;;;5107121;28;20414;-73
2021/03/10 03:55:11;;;;;;;26.73;21.13;;;5.70;99.90;;;;;;5090464;28;20479;-73
2021/03/10 03:57:37;;;;;;;31.10;22.70;;;5.60;99.90;;;;;;5084513;28;20411;-73
2021/03/10 04:00:05;;;;;;;32.87;22.93;;;5.60;99.90;;;;;;5094244;28;20780;-73
2021/03/10 04:02:31;;;;;;;35.47;24.70;;;5.40;99.90;;;;;;5106149;28;20436;-73
2021/03/10 04:04:56;;;;;;;30.03;21.90;;;5.60;99.90;;;;;;5106698;28;20516;-73
2021/03/10 04:07:22;;;;;;;31.43;21.93;;;5.40;99.90;;;;;;5108240;28;20190;-73
2021/03/10 04:09:48;;;;;;;29.80;23.33;;;5.40;99.90;;;;;;5098877;28;20216;-73
2021/03/10 04:12:13;;;;;;;36.87;25.40;;;5.50;99.90;;;;;;5082624;28;20184;-73
2021/03/10 04:14:39;;;;;;;37.83;24.27;;;5.60;99.90;;;;;;5087674;28;20694;-73
2021/03/10 04:17:05;;;;;;;36.03;24.63;;;5.50;99.90;;;;;;5066593;28;20169;-73
2021/03/10 04:19:31;;;;;;;35.97;24.67;;;5.60;99.90;;;;;;5088221;28;20188;-73
2021/03/10 04:21:56;;;;;;;32.80;23.47;;;5.30;99.90;;;;;;5107873;28;20230;-73
2021/03/10 04:24:22;;;;;;;40.87;27.10;;;5.30;99.90;;;;;;5134296;27;20238;-74
2021/03/10 04:26:48;;;;;;;38.37;25.70;;;5.20;99.90;;;;;;5066060;28;20703;-73
2021/03/10 04:29:14;;;;;;;37.23;25.00;;;5.30;99.90;;;;;;5095460;28;20235;-73
2021/03/10 04:31:39;;;;;;;40.00;27.00;;;5.50;99.90;;;;;;5107814;28;20180;-73
2021/03/10 04:34:05;;;;;;;37.03;25.63;;;5.30;99.90;;;;;;5094743;28;20414;-73
2021/03/10 04:36:33;;;;;;;37.70;25.50;;;5.30;99.90;;;;;;5085913;28;20193;-73
2021/03/10 04:38:59;;;;;;;34.47;24.63;;;5.30;99.90;;;;;;5085398;28;21147;-73
2021/03/10 04:41:24;;;;;;;40.40;25.43;;;5.40;99.90;;;;;;5076348;28;20185;-73
2021/03/10 04:43:50;;;;;;;38.43;24.07;;;5.60;99.90;;;;;;5087646;28;20189;-73
2021/03/10 04:46:15;;;;;;;37.50;25.33;;;5.60;99.90;;;;;;5069077;28;20430;-73
2021/03/10 04:48:41;;;;;;;36.97;25.57;;;5.70;99.90;;;;;;5101923;28;20215;-74
2021/03/10 04:51:07;;;;;;;41.10;24.03;;;5.70;99.90;;;;;;5122773;27;20704;-74
2021/03/10 04:53:33;;;;;;;35.30;23.43;;;5.50;99.90;;;;;;5106256;28;20198;-73
2021/03/10 04:55:58;;;;;;;38.10;26.27;;;5.50;99.90;;;;;;5084447;28;20181;-73
2021/03/10 04:58:24;;;;;;;45.37;27.97;;;5.40;99.90;;;;;;5074795;28;20176;-73
2021/03/10 05:00:50;;;;;;;35.23;24.20;;;5.50;99.90;;;;;;5099200;28;20597;-73
2021/03/10 05:03:15;;;;;;;38.60;25.83;;;5.60;99.90;;;;;;5103688;28;20203;-73
2021/03/10 05:05:41;;;;;;;34.93;24.97;;;5.40;99.90;;;;;;5080145;28;20183;-73
2021/03/10 05:08:07;;;;;;;40.50;25.67;;;5.40;99.90;;;;;;5105879;28;20188;-73
2021/03/10 05:10:32;;;;;;;37.20;24.33;;;5.40;99.90;;;;;;5086020;28;20672;-73
2021/03/10 05:12:58;;;;;;;41.03;24.27;;;5.30;99.90;;;;;;5095804;28;20211;-73
2021/03/10 05:15:24;;;;;;;35.40;25.50;;;5.40;99.90;;;;;;5085868;28;20187;-73
2021/03/10 05:17:49;;;;;;;39.57;26.20;;;5.30;99.90;;;;;;5105746;28;20199;-73
2021/03/10 05:20:15;;;;;;;38.17;25.73;;;5.30;99.90;;;;;;5097633;28;20187;-73
2021/03/10 05:22:41;;;;;;;38.40;25.40;;;5.30;99.90;;;;;;5089096;28;20336;-73
2021/03/10 05:25:08;;;;;;;37.17;24.67;;;5.30;99.90;;;;;;5129210;27;20192;-73
2021/03/10 05:27:35;;;;;;;38.77;25.57;;;5.30;99.90;;;;;;5082571;28;20184;-73
2021/03/10 05:30:03;;;;;;;36.50;25.13;;;5.10;99.90;;;;;;5086669;28;20454;-74
2021/03/10 05:32:28;;;;;;;33.50;23.83;;;5.10;99.90;;;;;;5103358;28;21234;-73
2021/03/10 05:34:54;;;;;;;34.63;24.50;;;4.90;99.90;;;;;;5101792;28;20583;-73
2021/03/10 05:37:20;;;;;;;33.50;24.17;;;4.90;99.90;;;;;;5106886;28;20190;-73
2021/03/10 05:39:48;;;;;;;32.33;22.97;;;5.00;99.90;;;;;;5102551;28;20180;-73
2021/03/10 05:42:14;;;;;;;37.23;24.33;;;5.10;99.90;;;;;;5074354;28;20199;-73
2021/03/10 05:44:40;;;;;;;30.70;23.37;;;5.00;99.90;;;;;;5087818;28;20411;-74
2021/03/10 05:47:06;;;;;;;34.27;22.70;;;5.10;99.90;;;;;;5081456;28;20181;-73
2021/03/10 05:49:33;;;;;;;29.77;21.57;;;5.10;99.90;;;;;;5086342;28;20740;-73
2021/03/10 05:52:03;;;;;;;29.83;21.50;;;4.90;99.90;;;;;;5086077;28;20435;-73
2021/03/10 05:54:29;;;;;;;29.63;22.03;;;4.70;99.90;;;;;;5092076;28;20506;-73
2021/03/10 05:56:56;;;;;;;32.70;23.07;;;4.90;99.90;;;;;;5081035;28;20433;-73
2021/03/10 05:59:21;;;;;;;29.13;21.80;;;4.90;99.90;;;;;;5095975;28;20423;-73
2021/03/10 06:01:47;;;;;;;33.10;21.23;;;5.10;99.90;;;;;;5109050;28;20916;-73
2021/03/10 06:04:13;;;;;;;29.13;21.73;;;5.10;99.90;;;;;;5136080;27;20184;-74
2021/03/10 06:06:40;;;;;;;32.40;21.77;;;5.20;99.90;;;;;;5085515;28;20479;-74
2021/03/10 06:09:20;;;;;;;29.70;21.00;;;5.00;99.90;;;;;;5088399;28;20294;-74
2021/03/10 06:11:54;;;;;;;25.13;20.53;;;5.10;99.90;;;;;;5077783;28;20439;-74
2021/03/10 06:14:20;;;;;;;28.07;21.27;;;5.10;99.90;;;;;;5089981;28;20422;-74
2021/03/10 06:16:46;;;;;;;29.80;20.97;;;5.10;99.90;;;;;;5090061;28;20459;-74
2021/03/10 06:19:12;;;;;;;25.27;19.90;;;5.00;99.90;;;;;;5098667;28;20457;-74
2021/03/10 06:21:49;;;;;;;25.83;20.43;;;5.20;99.90;;;;;;5110283;28;20601;-74
2021/03/10 06:24:15;;;;;;;27.50;20.23;;;5.00;99.90;;;;;;5109188;28;20210;-74
2021/03/10 06:26:40;;;;;;;29.10;20.73;;;5.10;99.90;;;;;;5086784;28;20435;-74
2021/03/10 06:29:15;;;;;;;28.50;21.13;;;5.30;99.90;;;;;;5092462;28;20223;-74
2021/03/10 06:31:42;;;;;;;26.40;18.77;;;5.20;99.90;;;;;;5101438;28;20542;-74
2021/03/10 06:34:09;;;;;;;29.97;20.83;;;5.20;99.90;;;;;;5105056;28;20414;-74
2021/03/10 06:36:41;;;;;;;27.70;19.80;;;5.20;99.90;;;;;;5102263;28;20413;-74
2021/03/10 06:39:12;;;;;;;25.97;20.27;;;5.10;99.90;;;;;;5091040;28;20781;-74
2021/03/10 06:41:43;;;;;;;25.07;20.30;;;5.10;99.90;;;;;;5075918;28;20424;-73
2021/03/10 06:44:25;;;;;;;24.57;19.23;;;5.40;99.90;;;;;;5091522;28;20788;-73
2021/03/10 06:47:01;;;;;;;27.70;20.63;;;5.30;99.90;;;;;;5089478;28;20410;-74
2021/03/10 06:49:30;;;;;;;27.97;21.10;;;5.40;99.90;;;;;;5101894;28;20443;-74
2021/03/10 06:52:06;;;;;;;27.20;20.23;;;5.30;99.90;;;;;;5107250;28;20477;-74
2021/03/10 06:54:32;;;;;;;31.97;20.87;;;5.30;99.90;;;;;;5108574;28;20995;-74
2021/03/10 06:57:10;;;;;;;28.67;21.07;;;5.10;99.90;;;;;;5086890;28;20526;-74
2021/03/10 06:59:43;;;;;;;30.00;22.00;;;5.10;99.90;;;;;;5078156;28;20643;-73
2021/03/10 07:02:21;;;;;;;26.90;19.93;;;5.10;99.90;;;;;;5087561;28;20434;-74
2021/03/10 07:04:58;;;;;;;27.90;22.40;;;5.00;99.90;;;;;;5098589;28;20418;-73
2021/03/10 07:07:26;;;;;;;29.87;22.37;;;5.20;99.90;;;;;;5100913;28;20510;-74
2021/03/10 07:09:54;;;;;;;27.50;21.13;;;5.10;99.90;;;;;;5107232;28;20476;-73
2021/03/10 07:12:23;;;;;;;29.90;21.30;;;5.20;99.90;;;;;;5082910;28;20849;-74
2021/03/10 07:14:51;;;;;;;28.57;21.80;;;5.00;99.90;;;;;;5086423;28;20821;-73
2021/03/10 07:17:19;;;;;;;31.30;20.90;;;5.20;99.90;;;;;;5085858;28;20774;-73
2021/03/10 07:19:45;;;;;;;26.23;19.80;;;5.10;99.90;;;;;;5092156;28;20489;-73
2021/03/10 07:22:29;;;;;;;27.97;21.50;;;5.20;99.90;;;;;;5102091;28;20413;-73
2021/03/10 07:25:00;;;;;;;26.73;20.63;;;5.40;99.90;;;;;;5108518;28;20438;-73
2021/03/10 07:27:37;;;;;;;27.73;20.37;;;5.10;99.90;;;;;;5088344;28;20848;-73
2021/03/10 07:30:04;;;;;;;29.43;21.10;;;5.40;99.90;;;;;;5091426;28;20996;-73
2021/03/10 07:32:30;;;;;;;27.60;21.70;;;5.40;99.90;;;;;;5093517;28;20509;-73
2021/03/10 07:35:05;;;;;;;28.57;22.17;;;5.40;99.90;;;;;;5105645;28;20510;-73
2021/03/10 07:37:32;;;;;;;32.57;21.77;;;5.50;99.90;;;;;;5107247;28;20190;-73
2021/03/10 07:40:14;;;;;;;28.40;21.33;;;5.40;99.90;;;;;;5106387;28;20444;-73
2021/03/10 07:42:53;;;;;;;30.00;22.20;;;5.30;99.90;;;;;;5089517;28;20796;-73
2021/03/10 07:45:20;;;;;;;33.03;21.80;;;5.50;99.90;;;;;;5086571;28;21029;-73
2021/03/10 07:47:53;;;;;;;28.90;21.43;;;5.40;99.90;;;;;;5099085;28;20420;-73
2021/03/10 07:50:20;;;;;;;26.50;21.10;;;5.70;99.90;;;;;;5098287;28;20462;-73
2021/03/10 07:52:54;;;;;;;28.90;22.00;;;5.70;99.90;;;;;;5086952;28;20393;-73
2021/03/10 07:55:20;;;;;;;31.60;23.77;;;5.70;99.90;;;;;;5087227;28;20414;-73
2021/03/10 07:57:50;;;;;;;26.43;20.40;;;5.70;99.90;;;;;;5078025;28;20892;-73
2021/03/10 08:00:16;;;;;;;30.47;21.37;;;5.70;99.90;;;;;;5091802;28;20918;-73
2021/03/10 08:02:44;;;;;;;33.77;22.30;;;5.80;99.90;;;;;;5092401;28;20513;-73
2021/03/10 08:05:24;;;;;;;25.60;19.10;;;5.80;99.90;;;;;;5086679;28;20444;-73
2021/03/10 08:08:11;;;;;;;28.27;20.27;;;5.70;99.90;;;;;;5086796;28;20495;-73
2021/03/10 08:10:41;;;;;;;28.13;18.93;;;5.80;99.90;;;;;;5087426;28;20425;-73
2021/03/10 08:13:20;;;;;;;28.20;19.90;;;5.90;99.90;;;;;;5081777;28;20418;-73
2021/03/10 08:15:49;;;;;;;25.80;17.60;;;5.80;99.90;;;;;;5091344;28;20423;-73
2021/03/10 08:18:20;;;;;;;28.80;20.00;;;5.80;99.90;;;;;;5104818;28;20495;-73
2021/03/10 08:20:47;;;;;;;29.40;19.50;;;6.00;99.90;;;;;;5087060;28;20422;-73
2021/03/10 08:23:12;;;;;;;27.63;20.50;;;5.70;99.90;;;;;;5087478;28;20952;-73
2021/03/10 08:25:38;;;;;;;29.73;20.97;;;6.00;99.90;;;;;;5084223;28;20758;-73
2021/03/10 08:28:12;;;;;;;30.50;20.60;;;5.90;99.90;;;;;;5101249;27;20196;-73
2021/03/10 08:30:37;;;;;;;31.50;19.83;;;6.10;99.90;;;;;;5086307;28;20212;-73
2021/03/10 08:33:05;;;;;;;28.77;19.90;;;6.20;99.90;;;;;;5093842;28;20448;-73
2021/03/10 08:35:31;;;;;;;27.80;20.50;;;6.10;99.90;;;;;;5101195;28;20180;-73
2021/03/10 08:38:00;;;;;;;30.13;21.00;;;6.20;99.90;;;;;;5094457;28;20410;-73
2021/03/10 08:40:28;;;;;;;30.10;21.80;;;6.20;99.90;;;;;;5104865;28;20967;-73
2021/03/10 08:42:58;;;;;;;30.00;19.97;;;6.30;99.90;;;;;;5088655;28;20739;-73
2021/03/10 08:45:26;;;;;;;28.87;21.50;;;6.30;99.90;;;;;;5084246;28;20410;-73
2021/03/10 08:47:59;;;;;;;29.67;20.43;;;6.30;99.90;;;;;;5085029;28;20422;-73
2021/03/10 08:50:36;;;;;;;32.40;20.90;;;6.30;99.90;;;;;;5090498;28;20465;-73
2021/03/10 08:53:03;;;;;;;35.53;22.80;;;6.60;99.90;;;;;;5101295;28;20884;-73
2021/03/10 08:55:32;;;;;;;33.47;21.33;;;6.60;99.90;;;;;;5088794;28;20417;-73
2021/03/10 08:58:06;;;;;;;33.30;22.27;;;6.30;99.90;;;;;;5091583;28;20414;-73
2021/03/10 09:00:35;;;;;;;31.20;22.87;;;6.60;99.90;;;;;;5080168;28;20410;-74
2021/03/10 09:03:15;;;;;;;34.97;23.00;;;6.60;99.90;;;;;;5068324;28;20789;-73
2021/03/10 09:05:44;;;;;;;32.20;23.90;;;6.70;99.90;;;;;;5094944;28;20536;-73
2021/03/10 09:08:12;;;;;;;32.17;23.37;;;6.60;99.90;;;;;;5091002;28;21025;-74
2021/03/10 09:10:52;;;;;;;36.93;23.43;;;6.40;99.90;;;;;;5104879;28;20526;-73
2021/03/10 09:13:19;;;;;;;34.53;22.73;;;6.80;99.90;;;;;;5087749;28;20499;-73
2021/03/10 09:15:47;;;;;;;35.90;25.60;;;6.80;99.90;;;;;;5098930;28;20414;-74
2021/03/10 09:18:13;;;;;;;40.07;25.87;;;6.90;99.90;;;;;;5081441;28;21068;-73
2021/03/10 09:20:44;;;;;;;38.87;25.87;;;7.00;99.90;;;;;;5099168;28;20429;-73
2021/03/10 09:23:10;;;;;;;38.57;25.07;;;7.10;99.90;;;;;;5107035;28;20236;-74
2021/03/10 09:25:38;;;;;;;38.93;25.57;;;6.90;99.90;;;;;;5092219;28;20914;-73
2021/03/10 09:28:11;;;;;;;38.23;25.70;;;7.20;99.90;;;;;;5092136;28;20434;-74
2021/03/10 09:30:39;;;;;;;37.17;26.93;;;7.00;99.90;;;;;;5087000;28;20815;-73
2021/03/10 09:33:05;;;;;;;37.60;25.63;;;7.10;99.90;;;;;;5094366;28;20469;-74
2021/03/10 09:35:34;;;;;;;40.20;28.43;;;7.20;99.90;;;;;;5106908;28;20414;-73
2021/03/10 09:38:05;;;;;;;39.10;26.40;;;7.10;99.90;;;;;;5092934;28;20461;-73
2021/03/10 09:40:52;;;;;;;43.20;28.13;;;7.30;99.90;;;;;;5101632;28;20437;-73
2021/03/10 09:43:20;;;;;;;38.67;26.53;;;7.20;99.90;;;;;;5091509;28;20975;-73
2021/03/10 09:45:47;;;;;;;40.27;26.93;;;7.30;99.90;;;;;;5084929;28;20429;-73
2021/03/10 09:48:15;;;;;;;40.10;26.57;;;7.50;99.90;;;;;;5085972;28;20791;-74
2021/03/10 09:50:49;;;;;;;41.40;28.20;;;7.70;99.90;;;;;;5094356;28;20490;-74
2021/03/10 09:53:23;;;;;;;40.83;26.50;;;7.40;99.90;;;;;;5067776;28;20811;-74
2021/03/10 09:55:50;;;;;;;39.47;25.73;;;7.80;99.90;;;;;;5104694;28;20479;-74
2021/03/10 09:58:15;;;;;;;40.97;26.37;;;7.60;99.90;;;;;;5094071;28;20941;-74
2021/03/10 10:00:43;;;;;;;47.53;29.70;;;7.70;99.90;;;;;;5083772;28;20479;-73
2021/03/10 10:03:13;;;;;;;44.20;27.97;;;7.90;99.90;;;;;;5091950;28;20218;-73
2021/03/10 10:05:40;;;;;;;41.90;27.57;;;7.90;99.90;;;;;;5086092;28;20471;-73
2021/03/10 10:08:08;;;;;;;37.40;25.30;;;8.00;99.90;;;;;;5106375;27;20955;-73
2021/03/10 10:10:35;;;;;;;45.70;27.10;;;8.20;99.90;;;;;;5106033;28;20465;-74
2021/03/10 10:13:02;;;;;;;37.13;25.93;;;8.10;99.90;;;;;;5082745;28;20435;-73
2021/03/10 10:15:30;;;;;;;41.17;26.43;;;8.20;99.90;;;;;;5093042;28;20419;-73
2021/03/10 10:17:58;;;;;;;44.20;27.30;;;8.40;99.90;;;;;;5091702;28;20479;-73
2021/03/10 10:20:28;;;;;;;41.67;27.60;;;8.50;99.90;;;;;;5084263;28;20434;-74
2021/03/10 10:22:54;;;;;;;45.67;26.67;;;8.50;99.90;;;;;;5094384;28;20531;-74
2021/03/10 10:25:21;;;;;;;44.93;26.40;;;8.70;99.90;;;;;;5105028;28;20425;-74
2021/03/10 10:27:48;;;;;;;41.53;27.60;;;8.90;99.90;;;;;;5086580;28;20453;-74
2021/03/10 10:30:17;;;;;;;37.40;25.73;;;8.90;99.90;;;;;;5086860;28;20523;-74
2021/03/10 10:32:48;;;;;;;37.23;25.70;;;9.30;99.90;;;;;;5091988;28;20783;-74
2021/03/10 10:35:15;;;;;;;37.70;24.90;;;9.30;99.90;;;;;;5106125;28;20479;-73
2021/03/10 10:37:41;;;;;;;40.60;26.87;;;9.50;99.90;;;;;;5099657;28;20500;-73
2021/03/10 10:40:12;;;;;;;40.83;25.50;;;9.60;99.90;;;;;;5091558;28;20418;-73
2021/03/10 10:42:39;;;;;;;34.50;24.50;;;9.60;99.90;;;;;;5082057;28;20456;-74
2021/03/10 10:45:06;;;;;;;39.30;25.20;;;9.70;99.90;;;;;;5079322;28;20468;-74
2021/03/10 10:47:32;;;;;;;33.30;23.60;;;9.60;99.90;;;;;;5090471;28;20423;-74
2021/03/10 10:50:00;;;;;;;35.50;24.20;;;9.60;99.90;;;;;;5102147;28;20457;-73
2021/03/10 10:52:26;;;;;;;39.30;26.03;;;9.70;99.90;;;;;;5088283;28;20744;-74
2021/03/10 10:54:54;;;;;;;33.20;22.90;;;9.60;99.90;;;;;;5104158;28;20476;-73
2021/03/10 10:57:19;;;;;;;33.57;22.87;;;9.60;99.90;;;;;;5109899;28;20449;-74
2021/03/10 10:59:45;;;;;;;32.47;21.10;;;9.60;99.90;;;;;;5096926;27;20189;-74
2021/03/10 11:02:11;;;;;;;30.83;20.33;;;9.40;99.90;;;;;;5093759;28;20238;-73
2021/03/10 11:04:38;;;;;;;36.70;22.57;;;9.40;99.90;;;;;;5103978;28;20233;-74
2021/03/10 11:07:05;;;;;;;31.77;21.13;;;9.60;99.90;;;;;;5085868;28;20437;-74
2021/03/10 11:09:31;;;;;;;30.37;19.50;;;9.60;99.90;;;;;;5104475;28;20445;-73
2021/03/10 11:11:57;;;;;;;27.90;19.63;;;9.50;99.90;;;;;;5098982;28;20758;-74
2021/03/10 11:14:23;;;;;;;26.70;19.70;;;9.50;99.90;;;;;;5083126;28;20429;-74
2021/03/10 11:16:48;;;;;;;33.60;20.57;;;9.50;99.90;;;;;;5094988;28;20180;-74
2021/03/10 11:19:14;;;;;;;27.03;19.23;;;9.50;99.90;;;;;;5086965;28;20989;-74
2021/03/10 11:21:42;;;;;;;29.73;19.57;;;9.70;99.90;;;;;;5061560;28;20198;-73
2021/03/10 11:24:08;;;;;;;30.90;20.80;;;9.90;99.90;;;;;;5103292;28;20639;-74
2021/03/10 11:26:34;;;;;;;29.93;19.90;;;9.80;99.90;;;;;;5107971;27;20433;-74
2021/03/10 11:29:00;;;;;;;27.80;19.40;;;9.80;99.90;;;;;;5096788;28;20451;-73
2021/03/10 11:31:26;;;;;;;32.37;20.10;;;9.90;99.90;;;;;;5086530;28;20928;-73
2021/03/10 11:33:51;;;;;;;26.07;18.97;;;9.90;99.90;;;;;;5093526;28;20276;-73
2021/03/10 11:36:17;;;;;;;27.40;19.47;;;9.90;99.90;;;;;;5125052;27;20187;-74
2021/03/10 11:38:43;;;;;;;23.83;18.43;;;10.10;99.90;;;;;;5106671;28;20175;-73
2021/03/10 11:41:09;;;;;;;26.23;18.20;;;10.10;99.90;;;;;;5106711;28;20551;-74
2021/03/10 11:43:35;;;;;;;22.93;16.50;;;10.00;99.90;;;;;;5101713;28;20483;-73
2021/03/10 11:46:01;;;;;;;27.73;18.00;;;10.10;99.90;;;;;;5079333;28;20407;-74
2021/03/10 11:48:26;;;;;;;22.90;17.57;;;10.20;99.90;;;;;;5091748;28;20272;-74
2021/03/10 11:50:55;;;;;;;23.87;16.80;;;10.30;99.90;;;;;;5108040;28;20457;-73
2021/03/10 11:53:21;;;;;;;21.40;15.57;;;10.40;99.90;;;;;;5090541;28;20441;-74
2021/03/10 11:55:48;;;;;;;19.47;13.30;;;10.70;99.90;;;;;;5096496;28;20725;-74
2021/03/10 11:58:14;;;;;;;19.93;13.27;;;10.80;99.90;;;;;;5108427;28;20855;-74
2021/03/10 12:00:41;;;;;;;18.97;13.03;;;10.70;99.90;;;;;;5077872;28;20438;-74
2021/03/10 12:03:06;;;;;;;17.53;13.03;;;10.80;99.90;;;;;;5094873;28;20984;-72
2021/03/10 12:05:32;;;;;;;20.57;14.50;;;10.80;99.90;;;;;;5108314;28;20500;-72
2021/03/10 12:07:58;;;;;;;18.07;13.33;;;10.70;99.90;;;;;;5101285;28;20538;-73
2021/03/10 12:10:24;;;;;;;22.23;15.03;;;10.60;99.90;;;;;;5107667;28;20282;-73
2021/03/10 12:12:49;;;;;;;19.93;14.00;;;10.70;99.90;;;;;;5123840;27;20184;-73
2021/03/10 12:15:16;;;;;;;18.50;13.60;;;10.80;99.90;;;;;;5090055;28;20279;-73
2021/03/10 12:17:42;;;;;;;18.70;13.47;;;10.80;99.90;;;;;;5096875;28;20172;-73
2021/03/10 12:20:08;;;;;;;19.30;14.90;;;10.80;99.90;;;;;;5113482;27;20792;-73
2021/03/10 12:22:34;;;;;;;18.90;14.30;;;10.70;99.90;;;;;;5107212;28;20190;-73
2021/03/10 12:25:00;;;;;;;19.57;14.17;;;10.60;99.90;;;;;;5107976;28;20449;-73
2021/03/10 12:27:26;;;;;;;17.33;11.90;;;10.60;99.90;;;;;;5108162;28;20457;-73
2021/03/10 12:29:58;;;;;;;18.53;12.87;;;10.50;99.90;;;;;;5088105;28;20218;-73
2021/03/10 12:32:25;;;;;;;18.13;13.43;;;10.90;99.90;;;;;;5093528;28;20236;-73
2021/03/10 12:34:52;;;;;;;18.80;13.17;;;10.70;99.90;;;;;;5099518;28;20502;-73
2021/03/10 12:37:18;;;;;;;18.07;12.60;;;10.70;99.90;;;;;;5106576;28;20414;-73
2021/03/10 12:39:43;;;;;;;15.67;11.43;;;10.70;99.90;;;;;;5086438;28;20480;-73